Time;durP1;ratioP1;P1;durP2;ratioP2;P2;SDS_P1;SDS_P2;PMS_P1;PMS_P2;Temp;Humidity;BMP_temperature;BMP_pressure;BME280_temperature;BME280_humidity;BME280_pressure;Samples;Min_cycle;Max_cycle;Signal;HPM_P1;HPM_P2
2021/01/26 05:01:56;;;;;;;78.63;37.28;;;0.50;99.90;;;;;;5476676;23;20568;-70
2021/01/26 05:04:27;;;;;;;72.20;33.58;;;0.60;99.90;;;;;;4936177;29;20213;-72
2021/01/26 05:06:58;;;;;;;82.57;36.33;;;0.60;99.90;;;;;;4942352;29;20214;-69
2021/01/26 05:09:29;;;;;;;67.57;37.63;;;0.60;99.90;;;;;;4947568;29;20230;-71
2021/01/26 05:11:56;;;;;;;74.93;37.97;;;0.60;99.90;;;;;;4943091;29;20233;-68
2021/01/26 05:14:26;;;;;;;77.82;38.58;;;0.60;99.90;;;;;;4954183;28;20213;-70
2021/01/26 05:16:56;;;;;;;69.85;34.53;;;0.60;99.90;;;;;;4953139;28;20220;-70
2021/01/26 05:19:26;;;;;;;75.15;36.42;;;0.60;99.90;;;;;;4954518;28;20552;-68
2021/01/26 05:22:05;;;;;;;82.32;38.42;;;0.60;99.90;;;;;;4950039;28;20240;-70
2021/01/26 05:24:35;;;;;;;80.80;36.15;;;0.60;99.90;;;;;;4953438;29;20316;-68
2021/01/26 05:27:02;;;;;;;79.05;36.05;;;0.60;99.90;;;;;;4952856;28;20209;-68
2021/01/26 05:29:28;;;;;;;73.40;35.58;;;0.50;99.90;;;;;;4952260;28;20642;-68
2021/01/26 05:32:01;;;;;;;79.10;37.60;;;0.50;99.90;;;;;;4953011;28;20229;-70
2021/01/26 05:34:30;;;;;;;79.30;38.42;;;0.50;99.90;;;;;;4953397;28;20210;-70
2021/01/26 05:36:57;;;;;;;78.30;35.38;;;0.50;99.90;;;;;;4946531;29;20217;-68
2021/01/26 05:39:31;;;;;;;77.00;36.10;;;0.50;99.90;;;;;;4952587;28;20259;-70
2021/01/26 05:41:58;;;;;;;75.75;36.97;;;0.40;99.90;;;;;;4952568;28;20601;-70
2021/01/26 05:44:24;;;;;;;71.50;35.78;;;0.40;99.90;;;;;;4954236;28;20213;-71
2021/01/26 05:46:51;;;;;;;73.60;36.05;;;0.40;99.90;;;;;;4951975;28;20209;-71
2021/01/26 05:49:35;;;;;;;72.60;36.47;;;0.40;99.90;;;;;;4951709;28;20633;-70
2021/01/26 05:52:02;;;;;;;91.18;38.63;;;0.50;99.90;;;;;;4950993;29;20253;-70
2021/01/26 05:54:30;;;;;;;82.13;40.25;;;0.50;99.90;;;;;;4953681;28;20213;-70
2021/01/26 05:56:57;;;;;;;86.57;40.00;;;0.50;99.90;;;;;;4953160;28;20786;-71
2021/01/26 05:59:31;;;;;;;75.28;37.45;;;0.50;99.90;;;;;;4957170;28;20213;-71
2021/01/26 06:02:10;;;;;;;80.93;38.30;;;0.50;99.90;;;;;;4950838;28;20236;-69
2021/01/26 06:04:38;;;;;;;78.35;37.30;;;0.50;99.90;;;;;;4950485;29;20322;-69
2021/01/26 06:07:05;;;;;;;82.18;39.17;;;0.50;99.90;;;;;;4950857;28;20678;-71
2021/01/26 06:09:36;;;;;;;69.10;38.28;;;0.50;99.90;;;;;;4954389;28;20229;-70
2021/01/26 06:12:18;;;;;;;73.28;36.95;;;0.60;99.90;;;;;;4934621;29;20233;-70
2021/01/26 06:14:46;;;;;;;68.32;36.15;;;0.60;99.90;;;;;;4937963;29;20209;-69
2021/01/26 06:17:18;;;;;;;73.32;37.55;;;0.60;99.90;;;;;;4952249;28;20264;-70
2021/01/26 06:19:45;;;;;;;83.10;40.60;;;0.60;99.90;;;;;;4954369;28;20621;-69
2021/01/26 06:22:22;;;;;;;76.85;36.90;;;0.60;99.90;;;;;;4949809;28;20590;-70
2021/01/26 06:24:51;;;;;;;75.32;37.85;;;0.60;99.90;;;;;;4948674;28;20201;-72
2021/01/26 06:27:33;;;;;;;79.35;38.05;;;0.60;99.90;;;;;;4951147;28;20252;-68
2021/01/26 06:30:15;;;;;;;72.93;35.78;;;0.60;99.90;;;;;;4952728;28;20232;-69
2021/01/26 06:32:58;;;;;;;94.82;39.15;;;0.70;99.90;;;;;;4953682;28;20544;-68
2021/01/26 06:35:34;;;;;;;70.18;35.55;;;0.60;99.90;;;;;;4952110;29;20212;-71
2021/01/26 06:38:21;;;;;;;75.60;39.67;;;0.70;99.90;;;;;;4949231;29;20237;-69
2021/01/26 06:41:15;;;;;;;69.50;36.40;;;0.70;99.90;;;;;;4952539;29;20280;-69
2021/01/26 06:43:55;;;;;;;73.65;36.67;;;0.70;99.90;;;;;;4955371;28;20216;-69
2021/01/26 06:46:35;;;;;;;75.07;38.63;;;0.70;99.90;;;;;;4955913;28;20223;-69
2021/01/26 06:49:14;;;;;;;86.38;37.78;;;0.70;99.90;;;;;;4957095;28;20569;-69
2021/01/26 06:52:08;;;;;;;75.57;39.00;;;0.60;99.90;;;;;;4954597;29;20229;-69
2021/01/26 06:54:47;;;;;;;76.55;38.25;;;0.60;99.90;;;;;;4957165;29;20224;-69
2021/01/26 06:57:31;;;;;;;68.57;37.10;;;0.70;99.90;;;;;;4955089;28;20264;-68
2021/01/26 07:00:09;;;;;;;80.40;39.58;;;0.70;99.90;;;;;;4956237;28;20563;-73
2021/01/26 07:03:05;;;;;;;70.45;38.00;;;0.70;99.90;;;;;;4937791;29;20625;-68
2021/01/26 07:06:02;;;;;;;63.83;34.38;;;0.70;99.90;;;;;;4953168;29;20213;-69
2021/01/26 07:08:51;;;;;;;76.30;38.60;;;0.70;99.90;;;;;;4958244;29;20210;-68
2021/01/26 07:11:51;;;;;;;72.20;36.95;;;0.70;99.90;;;;;;4944403;29;20245;-69
2021/01/26 07:14:31;;;;;;;68.68;35.17;;;0.70;99.90;;;;;;4922853;28;20234;-68
2021/01/26 07:17:00;;;;;;;71.05;36.63;;;0.70;99.90;;;;;;4956872;29;20213;-68
2021/01/26 07:19:56;;;;;;;77.97;35.83;;;0.70;99.90;;;;;;4957583;28;20228;-69
2021/01/26 07:22:45;;;;;;;80.43;35.88;;;0.60;99.90;;;;;;4955975;28;20244;-68
2021/01/26 07:25:25;;;;;;;71.00;37.05;;;0.60;99.90;;;;;;4959234;29;20300;-69
2021/01/26 07:28:29;;;;;;;75.15;36.55;;;0.60;99.90;;;;;;4939507;29;20674;-68
2021/01/26 07:31:00;;;;;;;79.28;36.95;;;0.60;99.90;;;;;;4948063;29;20255;-69
2021/01/26 07:33:31;;;;;;;87.50;37.10;;;0.50;99.90;;;;;;4957692;28;20213;-69
2021/01/26 07:36:04;;;;;;;76.65;38.65;;;0.50;99.90;;;;;;4956045;28;20575;-68
2021/01/26 07:38:35;;;;;;;77.85;39.90;;;0.50;99.90;;;;;;4958010;28;20511;-69
2021/01/26 07:41:05;;;;;;;81.55;38.72;;;0.50;99.90;;;;;;4956131;28;20229;-68
2021/01/26 07:43:39;;;;;;;77.38;36.38;;;0.40;99.90;;;;;;4956689;28;20205;-69
2021/01/26 07:46:09;;;;;;;86.68;38.38;;;0.40;99.90;;;;;;4955508;29;20210;-68
2021/01/26 07:48:42;;;;;;;70.38;35.63;;;0.40;99.90;;;;;;4957225;28;20315;-69
2021/01/26 07:51:15;;;;;;;76.68;36.08;;;0.40;99.90;;;;;;4953315;28;20244;-69
2021/01/26 07:53:50;;;;;;;73.10;35.25;;;0.40;99.90;;;;;;4955837;28;20209;-69
2021/01/26 07:56:24;;;;;;;73.63;34.05;;;0.40;99.90;;;;;;4955566;29;20209;-69
2021/01/26 07:58:51;;;;;;;83.20;39.65;;;0.30;99.90;;;;;;4956686;28;20220;-69
2021/01/26 08:01:25;;;;;;;76.85;37.30;;;0.30;99.90;;;;;;4955299;28;20378;-70
2021/01/26 08:03:51;;;;;;;85.45;38.08;;;0.30;99.90;;;;;;4955013;28;20304;-68
2021/01/26 08:06:46;;;;;;;92.30;39.70;;;0.30;99.90;;;;;;4953918;28;20597;-68
2021/01/26 08:09:16;;;;;;;77.82;40.85;;;0.30;99.90;;;;;;4953507;28;20209;-68
2021/01/26 08:11:53;;;;;;;108.63;48.53;;;0.30;99.90;;;;;;4954814;28;20238;-68
2021/01/26 08:14:26;;;;;;;119.85;52.00;;;0.30;99.90;;;;;;4955597;28;20204;-68
2021/01/26 08:16:55;;;;;;;179.77;66.72;;;0.30;99.90;;;;;;4956399;28;20237;-69
2021/01/26 08:19:25;;;;;;;93.38;46.55;;;0.30;99.90;;;;;;4956162;28;20209;-68
2021/01/26 08:21:53;;;;;;;103.45;44.00;;;0.40;99.90;;;;;;4954106;28;20233;-69
2021/01/26 08:24:31;;;;;;;80.72;40.97;;;0.40;99.90;;;;;;4955388;28;20508;-69
2021/01/26 08:27:26;;;;;;;80.43;41.13;;;0.40;99.90;;;;;;4953649;29;20212;-69
2021/01/26 08:29:55;;;;;;;94.90;43.20;;;0.40;99.90;;;;;;4945890;29;20233;-69
2021/01/26 08:32:41;;;;;;;97.65;42.28;;;0.40;99.90;;;;;;4955581;28;20236;-72
2021/01/26 08:35:09;;;;;;;95.95;42.97;;;0.50;99.90;;;;;;4952809;29;20209;-70
2021/01/26 08:37:48;;;;;;;87.43;42.65;;;0.50;99.90;;;;;;4954902;28;20392;-69
2021/01/26 08:40:20;;;;;;;96.63;42.42;;;0.50;99.90;;;;;;4955921;28;20209;-70
2021/01/26 08:43:01;;;;;;;109.43;50.90;;;0.50;99.90;;;;;;4954760;28;20213;-73
2021/01/26 08:45:56;;;;;;;97.07;44.53;;;0.60;99.90;;;;;;4954915;28;20895;-72
2021/01/26 08:48:25;;;;;;;89.65;40.08;;;0.60;99.90;;;;;;4945309;29;20205;-72
2021/01/26 08:51:23;;;;;;;92.53;44.63;;;0.70;99.90;;;;;;4954857;28;20237;-72
2021/01/26 08:53:50;;;;;;;95.13;44.78;;;0.70;99.90;;;;;;4935629;29;20217;-72
2021/01/26 08:56:38;;;;;;;96.53;43.78;;;0.70;99.90;;;;;;4949782;29;20217;-72
2021/01/26 08:59:08;;;;;;;109.20;46.97;;;0.80;99.90;;;;;;4954902;29;20681;-69
2021/01/26 09:01:46;;;;;;;105.03;45.63;;;0.80;99.90;;;;;;4954664;28;20232;-68
2021/01/26 09:04:38;;;;;;;104.75;44.75;;;0.90;99.90;;;;;;4935823;29;20210;-68
2021/01/26 09:07:06;;;;;;;100.30;46.33;;;0.90;99.90;;;;;;4953451;29;20213;-68
2021/01/26 09:09:51;;;;;;;105.72;45.95;;;1.00;99.90;;;;;;4955845;28;20209;-68
2021/01/26 09:12:23;;;;;;;112.78;44.55;;;1.00;99.90;;;;;;4953714;28;20724;-72
2021/01/26 09:14:54;;;;;;;101.60;44.17;;;1.10;99.90;;;;;;4954997;29;20205;-71
2021/01/26 09:17:25;;;;;;;99.53;46.35;;;1.10;99.90;;;;;;4954098;28;20769;-72
2021/01/26 09:19:53;;;;;;;92.70;46.47;;;1.10;99.90;;;;;;4955400;28;20205;-72
2021/01/26 09:22:23;;;;;;;103.13;45.38;;;1.20;99.90;;;;;;4951981;28;20656;-71
2021/01/26 09:24:57;;;;;;;99.50;45.95;;;1.20;99.90;;;;;;4955309;28;20611;-72
2021/01/26 09:27:26;;;;;;;102.13;46.00;;;1.20;99.90;;;;;;4955301;29;20198;-72
2021/01/26 09:30:13;;;;;;;103.80;44.70;;;1.30;99.90;;;;;;4955499;28;20220;-72
2021/01/26 09:32:41;;;;;;;114.65;48.38;;;1.30;99.90;;;;;;4954268;28;20221;-72
2021/01/26 09:35:10;;;;;;;117.40;46.40;;;1.40;99.90;;;;;;4952337;28;20224;-72
2021/01/26 09:37:36;;;;;;;109.03;47.05;;;1.40;99.90;;;;;;4953652;29;20879;-72
2021/01/26 09:40:08;;;;;;;103.78;46.97;;;1.40;99.90;;;;;;4950968;29;20646;-72
2021/01/26 09:42:34;;;;;;;104.15;45.45;;;1.40;99.90;;;;;;4955021;28;20205;-72
2021/01/26 09:45:03;;;;;;;100.55;47.15;;;1.50;99.90;;;;;;4957969;29;20269;-71
2021/01/26 09:47:30;;;;;;;97.85;44.72;;;1.50;99.90;;;;;;4952341;29;20201;-72
2021/01/26 09:50:00;;;;;;;108.30;48.33;;;1.50;99.90;;;;;;4956082;29;20236;-72
2021/01/26 09:52:27;;;;;;;104.03;46.25;;;1.50;99.90;;;;;;4949324;28;20721;-71
2021/01/26 09:55:05;;;;;;;111.35;47.33;;;1.60;99.90;;;;;;4947753;28;20202;-72
2021/01/26 09:57:32;;;;;;;105.60;49.80;;;1.80;99.90;;;;;;4946012;29;20201;-73
2021/01/26 09:59:58;;;;;;;110.57;52.20;;;1.90;99.90;;;;;;4954056;28;20209;-72
2021/01/26 10:02:27;;;;;;;113.03;51.90;;;2.00;99.90;;;;;;4953361;28;20248;-72
2021/01/26 10:04:55;;;;;;;111.80;51.65;;;2.10;99.90;;;;;;4953147;28;20688;-72
2021/01/26 10:07:22;;;;;;;101.47;48.35;;;2.20;99.90;;;;;;4953370;29;20209;-72
2021/01/26 10:09:48;;;;;;;105.68;48.85;;;2.30;99.90;;;;;;4950817;28;20198;-72
2021/01/26 10:12:22;;;;;;;99.88;49.30;;;2.20;99.90;;;;;;4954086;28;20320;-72
2021/01/26 10:15:14;;;;;;;107.15;47.13;;;2.20;99.90;;;;;;4950546;29;20201;-71
2021/01/26 10:17:50;;;;;;;102.65;50.50;;;2.30;99.90;;;;;;4956779;28;20681;-73
2021/01/26 10:20:27;;;;;;;99.13;45.00;;;2.30;99.90;;;;;;4946637;29;20206;-71
2021/01/26 10:23:03;;;;;;;93.38;46.65;;;2.40;99.90;;;;;;4948867;29;20336;-72
2021/01/26 10:25:30;;;;;;;90.82;42.40;;;2.40;99.90;;;;;;4957278;28;20685;-71
2021/01/26 10:28:06;;;;;;;95.28;42.67;;;2.40;99.90;;;;;;4957920;29;20284;-71
2021/01/26 10:30:39;;;;;;;88.63;42.45;;;2.40;99.90;;;;;;4955686;29;20576;-71
2021/01/26 10:33:06;;;;;;;69.57;38.25;;;2.50;99.90;;;;;;4959368;29;20242;-71
2021/01/26 10:35:35;;;;;;;74.00;38.45;;;2.50;99.90;;;;;;4957505;29;20221;-71
2021/01/26 10:38:26;;;;;;;76.20;36.58;;;2.50;99.90;;;;;;4957437;28;20217;-71
2021/01/26 10:41:05;;;;;;;67.22;36.47;;;2.50;99.90;;;;;;4957128;28;20217;-72
2021/01/26 10:43:31;;;;;;;78.40;36.33;;;2.60;99.90;;;;;;4956922;28;20263;-72
2021/01/26 10:45:58;;;;;;;71.95;35.78;;;2.60;99.90;;;;;;4957758;29;20213;-71
2021/01/26 10:48:29;;;;;;;68.80;33.72;;;2.70;99.90;;;;;;4957696;29;20654;-71
2021/01/26 10:51:07;;;;;;;65.38;33.85;;;2.70;99.90;;;;;;4956854;29;20295;-70
2021/01/26 10:53:39;;;;;;;72.03;36.05;;;2.80;99.90;;;;;;4963657;29;20213;-71
2021/01/26 10:56:06;;;;;;;55.63;32.15;;;2.80;99.90;;;;;;4969276;28;20206;-71
2021/01/26 10:58:33;;;;;;;69.28;34.45;;;2.80;99.90;;;;;;4971217;28;20205;-72
2021/01/26 11:01:00;;;;;;;66.90;34.40;;;2.90;99.90;;;;;;4970701;28;20221;-73
2021/01/26 11:03:27;;;;;;;63.90;34.30;;;2.90;99.90;;;;;;4975950;28;20232;-72
2021/01/26 11:05:53;;;;;;;55.85;30.83;;;3.00;99.90;;;;;;4973174;28;20206;-71
2021/01/26 11:08:19;;;;;;;68.38;34.20;;;3.00;99.90;;;;;;4962867;29;20197;-72
2021/01/26 11:10:46;;;;;;;62.33;33.47;;;3.10;99.90;;;;;;4973632;28;20225;-71
2021/01/26 11:13:12;;;;;;;61.60;31.30;;;3.10;99.90;;;;;;4960581;28;20217;-72
2021/01/26 11:15:38;;;;;;;57.58;30.52;;;3.20;99.90;;;;;;4969439;28;20201;-72
2021/01/26 11:18:05;;;;;;;57.75;34.10;;;3.20;99.90;;;;;;4963060;28;20201;-71
2021/01/26 11:20:33;;;;;;;51.90;31.60;;;3.20;99.90;;;;;;4962448;28;20221;-72
2021/01/26 11:22:59;;;;;;;48.53;29.58;;;3.20;99.90;;;;;;4957703;29;20261;-72
2021/01/26 11:25:27;;;;;;;52.10;29.70;;;3.30;99.90;;;;;;4945808;28;20217;-72
2021/01/26 11:27:53;;;;;;;45.78;29.15;;;3.30;99.90;;;;;;4955581;28;20236;-72
2021/01/26 11:30:21;;;;;;;40.55;27.15;;;3.30;99.90;;;;;;4951078;28;20229;-71
2021/01/26 11:32:47;;;;;;;50.85;27.98;;;3.30;99.90;;;;;;4952486;28;20288;-72
2021/01/26 11:35:17;;;;;;;54.50;29.05;;;3.30;99.90;;;;;;4955209;28;20564;-72
2021/01/26 11:37:44;;;;;;;46.72;27.25;;;3.30;99.90;;;;;;4955696;28;20213;-71
2021/01/26 11:40:11;;;;;;;47.60;27.30;;;3.30;99.90;;;;;;4955547;28;20272;-72
2021/01/26 11:42:38;;;;;;;40.47;24.77;;;3.30;99.90;;;;;;4955224;29;20280;-72
2021/01/26 11:45:08;;;;;;;48.13;25.83;;;3.30;99.90;;;;;;4955824;28;20205;-72
2021/01/26 11:47:34;;;;;;;41.40;26.30;;;3.30;99.90;;;;;;4956503;28;20249;-74
2021/01/26 11:50:01;;;;;;;48.10;26.70;;;3.30;99.90;;;;;;4954049;28;20225;-73
2021/01/26 11:52:27;;;;;;;40.47;24.15;;;3.30;99.90;;;;;;4953857;28;20225;-74
2021/01/26 11:54:54;;;;;;;39.92;24.55;;;3.20;99.90;;;;;;4956119;29;20701;-74
2021/01/26 11:57:21;;;;;;;39.90;24.67;;;3.20;99.90;;;;;;4956035;29;20541;-75
2021/01/26 11:59:48;;;;;;;41.20;25.00;;;3.20;99.90;;;;;;4956365;29;20205;-75
2021/01/26 12:02:14;;;;;;;40.05;24.67;;;3.20;99.90;;;;;;4956076;28;20244;-75
2021/01/26 12:04:40;;;;;;;36.95;23.00;;;3.20;99.90;;;;;;4956155;28;20209;-75
2021/01/26 12:07:06;;;;;;;41.95;25.50;;;3.20;99.90;;;;;;4955524;29;20287;-75
2021/01/26 12:09:32;;;;;;;37.10;22.50;;;3.30;99.90;;;;;;4950340;28;20221;-74
2021/01/26 12:11:59;;;;;;;33.28;21.50;;;3.40;99.90;;;;;;4955493;28;20252;-74
2021/01/26 12:14:26;;;;;;;35.33;21.63;;;3.50;99.90;;;;;;4954121;29;20724;-74
2021/01/26 12:16:52;;;;;;;33.17;21.92;;;3.60;99.90;;;;;;4952676;28;20198;-74
2021/01/26 12:19:18;;;;;;;33.72;20.80;;;3.70;99.90;;;;;;4955614;29;20280;-74
2021/01/26 12:21:44;;;;;;;33.95;21.65;;;3.70;99.90;;;;;;4954369;28;20760;-72
2021/01/26 12:24:11;;;;;;;22.15;15.98;;;3.80;99.90;;;;;;4954610;28;20198;-71
2021/01/26 12:26:37;;;;;;;30.65;17.10;;;3.80;99.90;;;;;;4952756;28;20220;-70
2021/01/26 12:29:04;;;;;;;24.70;16.60;;;3.90;99.90;;;;;;4954494;29;20205;-70
2021/01/26 12:31:30;;;;;;;22.45;13.93;;;3.80;99.90;;;;;;4954253;28;20253;-70
2021/01/26 12:33:56;;;;;;;22.85;14.82;;;3.80;99.90;;;;;;4955109;29;20213;-70
2021/01/26 12:36:23;;;;;;;26.60;15.20;;;3.90;99.90;;;;;;4954660;28;20201;-70
2021/01/26 12:38:49;;;;;;;22.77;13.45;;;3.90;99.90;;;;;;4954568;28;20213;-70
2021/01/26 12:41:16;;;;;;;19.75;14.23;;;4.00;99.90;;;;;;4954271;28;20225;-70
2021/01/26 12:43:43;;;;;;;22.52;14.88;;;4.10;99.90;;;;;;4954749;28;20205;-71
2021/01/26 12:46:10;;;;;;;21.45;14.88;;;4.20;99.90;;;;;;4954458;29;20948;-70
2021/01/26 12:48:36;;;;;;;18.42;12.82;;;4.40;99.90;;;;;;4955105;28;20260;-71
2021/01/26 12:51:02;;;;;;;17.80;11.93;;;4.40;99.90;;;;;;4953737;29;20244;-70
2021/01/26 12:53:28;;;;;;;15.55;11.98;;;4.50;99.90;;;;;;4954123;28;20234;-70
2021/01/26 12:55:54;;;;;;;15.77;11.32;;;4.50;99.90;;;;;;4954041;29;20490;-70
2021/01/26 12:58:20;;;;;;;14.48;10.77;;;4.50;99.90;;;;;;4953769;28;20529;-69
2021/01/26 13:00:47;;;;;;;14.00;10.68;;;4.50;99.90;;;;;;4954603;28;20297;-69
2021/01/26 13:03:14;;;;;;;13.05;10.10;;;4.60;99.90;;;;;;4954533;28;20220;-69
2021/01/26 13:05:40;;;;;;;15.43;9.85;;;4.50;99.90;;;;;;4954358;28;20533;-70
2021/01/26 13:08:06;;;;;;;13.68;10.52;;;4.50;99.90;;;;;;4954060;28;20205;-69
2021/01/26 13:10:33;;;;;;;13.70;11.15;;;4.50;99.90;;;;;;4954786;28;20640;-69
2021/01/26 13:12:59;;;;;;;24.58;20.30;;;4.50;99.90;;;;;;4952020;29;20211;-69
2021/01/26 13:15:27;;;;;;;11.25;9.70;;;4.50;99.90;;;;;;4953854;28;20249;-69
2021/01/26 13:17:53;;;;;;;11.32;10.15;;;4.40;99.90;;;;;;4938574;28;20491;-70
2021/01/26 13:20:21;;;;;;;15.07;10.23;;;4.40;99.90;;;;;;4954222;28;20304;-69
2021/01/26 13:22:48;;;;;;;23.88;15.88;;;4.30;99.90;;;;;;4953842;28;20209;-69
2021/01/26 13:25:16;;;;;;;18.33;12.10;;;4.30;99.90;;;;;;4954418;28;20673;-69
2021/01/26 13:27:42;;;;;;;13.45;10.07;;;4.30;99.90;;;;;;4954042;28;20205;-69
2021/01/26 13:30:11;;;;;;;16.55;12.38;;;4.30;99.90;;;;;;4953283;28;20626;-70
2021/01/26 13:32:37;;;;;;;12.25;9.95;;;4.20;99.90;;;;;;4953888;29;20221;-70
2021/01/26 13:35:05;;;;;;;14.52;10.65;;;4.20;99.90;;;;;;4953959;29;20614;-70
2021/01/26 13:37:32;;;;;;;12.93;10.30;;;4.20;99.90;;;;;;4954127;28;20209;-70
2021/01/26 13:39:58;;;;;;;35.95;23.00;;;4.20;99.90;;;;;;4954298;28;20681;-70
2021/01/26 13:42:24;;;;;;;14.70;11.07;;;4.20;99.90;;;;;;4953961;29;20221;-69
2021/01/26 13:44:51;;;;;;;12.63;10.75;;;4.20;99.90;;;;;;4955123;28;20201;-69
2021/01/26 13:47:18;;;;;;;14.02;9.90;;;4.30;99.90;;;;;;4950168;29;20268;-70
2021/01/26 13:49:45;;;;;;;14.68;10.73;;;4.30;99.90;;;;;;4955156;28;20332;-70
2021/01/26 13:52:11;;;;;;;12.30;9.15;;;4.30;99.90;;;;;;4952692;28;20228;-70
2021/01/26 13:54:39;;;;;;;12.25;9.93;;;4.30;99.90;;;;;;4955080;28;20213;-69
2021/01/26 13:57:05;;;;;;;12.63;8.55;;;4.40;99.90;;;;;;4954183;28;20610;-70
2021/01/26 13:59:31;;;;;;;11.52;8.23;;;4.40;99.90;;;;;;4955024;29;20256;-70
2021/01/26 14:01:57;;;;;;;14.15;9.02;;;4.50;99.90;;;;;;4952220;28;20232;-70
2021/01/26 14:04:23;;;;;;;10.63;8.48;;;4.40;99.90;;;;;;4952483;28;20994;-71
2021/01/26 14:06:50;;;;;;;11.25;8.25;;;4.50;99.90;;;;;;4938331;29;20206;-68
2021/01/26 14:09:17;;;;;;;13.00;10.05;;;4.50;99.90;;;;;;4937879;29;20538;-69
2021/01/26 14:11:44;;;;;;;12.43;8.95;;;4.50;99.90;;;;;;4953142;29;20287;-69
2021/01/26 14:14:10;;;;;;;10.88;8.75;;;4.50;99.90;;;;;;4953671;29;20209;-69
2021/01/26 14:16:36;;;;;;;10.32;7.78;;;4.50;99.90;;;;;;4953019;28;20291;-69
2021/01/26 14:19:04;;;;;;;14.90;9.50;;;4.50;99.90;;;;;;4953971;29;20193;-68
2021/01/26 14:21:30;;;;;;;14.27;9.02;;;4.40;99.90;;;;;;4953051;28;20232;-68
2021/01/26 14:23:56;;;;;;;14.82;11.77;;;4.40;99.90;;;;;;4946731;29;20487;-68
2021/01/26 14:26:22;;;;;;;21.75;15.65;;;4.50;99.90;;;;;;4947325;28;20646;-68
2021/01/26 14:28:49;;;;;;;18.98;11.82;;;4.40;99.90;;;;;;4953193;29;20213;-69
2021/01/26 14:31:16;;;;;;;17.48;10.20;;;4.40;99.90;;;;;;4935687;29;20238;-68
2021/01/26 14:33:42;;;;;;;11.95;10.50;;;4.30;99.90;;;;;;4948500;29;20296;-68
2021/01/26 14:36:09;;;;;;;12.88;8.90;;;4.30;99.90;;;;;;4954698;28;20206;-68
2021/01/26 14:38:35;;;;;;;11.63;9.52;;;4.30;99.90;;;;;;4956485;28;20213;-69
2021/01/26 14:41:01;;;;;;;17.58;12.30;;;4.30;99.90;;;;;;4957104;28;20608;-68
2021/01/26 14:43:27;;;;;;;11.73;8.93;;;4.30;99.90;;;;;;4947173;29;20209;-71
2021/01/26 14:45:55;;;;;;;12.68;9.95;;;4.30;99.90;;;;;;4957478;28;20573;-69
2021/01/26 14:48:21;;;;;;;9.25;8.00;;;4.30;99.90;;;;;;4960763;29;20209;-70
2021/01/26 14:50:48;;;;;;;11.52;8.80;;;4.30;99.90;;;;;;4960385;28;20674;-69
2021/01/26 14:53:14;;;;;;;27.77;15.70;;;4.20;99.90;;;;;;4960026;29;20617;-69
2021/01/26 14:55:42;;;;;;;11.43;9.05;;;4.10;99.90;;;;;;4960349;29;20206;-69
2021/01/26 14:58:08;;;;;;;13.02;9.13;;;4.00;99.90;;;;;;4955993;29;20202;-70
2021/01/26 15:00:34;;;;;;;12.55;9.20;;;3.90;99.90;;;;;;4954871;28;20229;-68
2021/01/26 15:03:01;;;;;;;13.23;9.40;;;3.70;99.90;;;;;;4950019;28;20194;-68
2021/01/26 15:05:27;;;;;;;15.75;10.90;;;3.60;99.90;;;;;;4956283;29;20206;-68
2021/01/26 15:07:53;;;;;;;15.10;10.27;;;3.60;99.90;;;;;;4957008;28;20209;-67
2021/01/26 15:10:21;;;;;;;15.45;10.98;;;3.50;99.90;;;;;;4957583;28;20221;-67
2021/01/26 15:12:48;;;;;;;12.52;10.02;;;3.50;99.90;;;;;;4952625;28;20218;-67
2021/01/26 15:15:16;;;;;;;11.15;8.77;;;3.50;99.90;;;;;;4958964;28;20208;-67
2021/01/26 15:17:42;;;;;;;8.52;6.20;;;3.40;99.90;;;;;;4955839;28;20717;-68
2021/01/26 15:20:10;;;;;;;8.52;7.60;;;3.40;99.90;;;;;;4949974;29;20205;-68
2021/01/26 15:22:37;;;;;;;12.93;6.78;;;3.40;99.90;;;;;;4957170;28;20548;-68
2021/01/26 15:25:05;;;;;;;14.93;10.10;;;3.30;99.90;;;;;;4957442;29;20205;-68
2021/01/26 15:27:31;;;;;;;14.52;8.55;;;3.30;99.90;;;;;;4956983;28;20266;-68
2021/01/26 15:29:57;;;;;;;5.47;4.97;;;3.20;99.90;;;;;;4951795;28;20212;-69
2021/01/26 15:32:23;;;;;;;4.85;4.30;;;3.10;99.90;;;;;;4952138;28;20221;-68
2021/01/26 15:34:49;;;;;;;3.78;3.58;;;3.10;99.90;;;;;;4957663;28;20242;-68
2021/01/26 15:37:19;;;;;;;4.82;4.30;;;3.00;99.90;;;;;;4947686;29;20666;-68
2021/01/26 15:39:47;;;;;;;4.22;3.88;;;3.00;99.90;;;;;;4957807;28;20295;-69
2021/01/26 15:42:13;;;;;;;4.68;4.28;;;2.90;99.90;;;;;;4957969;29;20240;-68
2021/01/26 15:44:39;;;;;;;6.63;4.20;;;2.90;99.90;;;;;;4959348;28;20339;-67
2021/01/26 15:47:06;;;;;;;3.45;3.25;;;2.80;99.90;;;;;;4957487;29;20208;-70
2021/01/26 15:49:33;;;;;;;3.72;3.35;;;2.80;99.90;;;;;;4958798;28;20209;-69
2021/01/26 15:51:59;;;;;;;3.50;3.20;;;2.70;99.90;;;;;;4956884;28;21065;-71
2021/01/26 15:54:26;;;;;;;6.18;4.60;;;2.70;99.90;;;;;;4958611;28;20260;-69
2021/01/26 15:56:52;;;;;;;5.50;3.72;;;2.60;99.90;;;;;;4958085;29;20205;-70
2021/01/26 15:59:19;;;;;;;7.75;4.03;;;2.60;99.90;;;;;;4958153;29;20212;-69
2021/01/26 16:01:45;;;;;;;7.18;5.25;;;2.60;99.90;;;;;;4956849;28;20605;-69
2021/01/26 16:04:11;;;;;;;8.85;4.38;;;2.50;99.90;;;;;;4957311;28;20532;-69
2021/01/26 16:06:37;;;;;;;3.47;3.10;;;2.60;99.90;;;;;;4955970;28;20232;-71
2021/01/26 16:09:04;;;;;;;7.93;4.30;;;2.60;99.90;;;;;;4956790;29;20210;-70
2021/01/26 16:11:31;;;;;;;6.30;4.72;;;2.50;99.90;;;;;;4957365;28;20261;-69
2021/01/26 16:13:57;;;;;;;3.80;3.40;;;2.50;99.90;;;;;;4956644;28;20201;-69
2021/01/26 16:16:24;;;;;;;7.22;3.60;;;2.50;99.90;;;;;;4956354;28;20205;-69
2021/01/26 16:18:50;;;;;;;2.55;2.45;;;2.50;99.90;;;;;;4956767;28;20224;-69
2021/01/26 16:21:16;;;;;;;3.40;2.70;;;2.50;99.90;;;;;;4954624;29;20237;-70
2021/01/26 16:23:42;;;;;;;3.10;2.85;;;2.40;99.90;;;;;;4954959;28;20309;-70
2021/01/26 16:26:08;;;;;;;3.20;3.03;;;2.40;99.90;;;;;;4955339;29;20209;-70
2021/01/26 16:28:35;;;;;;;3.55;3.25;;;2.40;99.90;;;;;;4952681;28;20217;-70
2021/01/26 16:31:01;;;;;;;3.08;2.97;;;2.40;99.90;;;;;;4954547;29;20232;-71
2021/01/26 16:33:27;;;;;;;3.85;3.53;;;2.40;99.90;;;;;;4954396;29;20205;-75
2021/01/26 16:35:56;;;;;;;7.68;4.80;;;2.40;99.90;;;;;;4955350;28;20212;-74
2021/01/26 16:38:22;;;;;;;3.75;3.50;;;2.30;99.90;;;;;;4955222;28;20307;-75
2021/01/26 16:40:52;;;;;;;2.58;2.38;;;2.30;99.90;;;;;;4954989;28;20234;-72
2021/01/26 16:43:18;;;;;;;2.85;2.60;;;2.30;99.90;;;;;;4954986;29;20650;-73
2021/01/26 16:45:46;;;;;;;7.43;6.57;;;2.30;99.90;;;;;;4954892;28;20205;-73
2021/01/26 16:48:12;;;;;;;10.15;5.60;;;2.30;99.90;;;;;;4952324;28;20201;-72
2021/01/26 16:50:41;;;;;;;29.35;15.82;;;2.30;99.90;;;;;;4953996;28;20233;-73
2021/01/26 16:53:08;;;;;;;5.68;4.22;;;2.20;99.90;;;;;;4954564;29;20348;-74
2021/01/26 16:55:34;;;;;;;4.60;4.15;;;2.20;99.90;;;;;;4954236;29;20224;-73
2021/01/26 16:58:00;;;;;;;5.38;3.30;;;2.20;99.90;;;;;;4954543;29;20610;-74
2021/01/26 17:00:29;;;;;;;3.08;2.78;;;2.20;99.90;;;;;;4954472;28;20229;-73
2021/01/26 17:02:57;;;;;;;3.45;2.30;;;2.20;99.90;;;;;;4953796;28;20224;-74
2021/01/26 17:05:24;;;;;;;3.17;2.80;;;2.20;99.90;;;;;;4953211;29;20215;-75
2021/01/26 17:07:50;;;;;;;3.83;3.65;;;2.10;99.90;;;;;;4954421;28;20205;-74
2021/01/26 17:10:17;;;;;;;3.75;2.70;;;2.10;99.90;;;;;;4954217;28;20216;-73
2021/01/26 17:12:44;;;;;;;5.05;4.47;;;2.10;99.90;;;;;;4957637;28;20280;-73
2021/01/26 17:15:11;;;;;;;3.80;3.50;;;2.10;99.90;;;;;;4966213;28;20201;-73
2021/01/26 17:17:37;;;;;;;3.88;2.33;;;2.10;99.90;;;;;;4963790;28;20249;-73
2021/01/26 17:20:06;;;;;;;2.90;2.65;;;2.10;99.90;;;;;;4958344;29;20201;-72
2021/01/26 17:22:33;;;;;;;3.22;3.00;;;2.10;99.90;;;;;;4945356;28;20293;-70
2021/01/26 17:24:59;;;;;;;3.45;2.97;;;2.10;99.90;;;;;;4953272;28;20228;-70
2021/01/26 17:27:25;;;;;;;16.20;10.45;;;2.10;99.90;;;;;;4933376;29;20217;-70
2021/01/26 17:29:51;;;;;;;7.38;5.65;;;2.00;99.90;;;;;;4938322;29;20224;-70
2021/01/26 17:32:18;;;;;;;5.70;4.13;;;2.00;99.90;;;;;;4951966;28;20229;-70
2021/01/26 17:34:44;;;;;;;7.40;6.22;;;2.00;99.90;;;;;;4952525;29;20240;-70
2021/01/26 17:37:11;;;;;;;4.82;4.32;;;2.00;99.90;;;;;;4951834;29;20304;-69
2021/01/26 17:39:37;;;;;;;5.30;4.80;;;2.10;99.90;;;;;;4952800;28;20214;-69
2021/01/26 17:42:05;;;;;;;6.03;5.60;;;2.10;99.90;;;;;;4950671;28;20595;-71
2021/01/26 17:44:31;;;;;;;7.55;4.40;;;2.10;99.90;;;;;;4951715;28;20236;-71
2021/01/26 17:46:57;;;;;;;9.50;7.20;;;2.20;99.90;;;;;;4951359;29;20288;-71
2021/01/26 17:49:24;;;;;;;5.80;5.30;;;2.20;99.90;;;;;;4951377;28;20232;-72
2021/01/26 17:51:50;;;;;;;9.90;5.32;;;2.30;99.90;;;;;;4950298;28;20237;-69
2021/01/26 17:54:17;;;;;;;5.53;5.03;;;2.30;99.90;;;;;;4951579;29;20212;-70
2021/01/26 17:56:46;;;;;;;3.80;3.50;;;2.30;99.90;;;;;;4951692;29;20547;-70